^^
Station Historical Data
Daily Summary for September 11, 2017 Units:  English    Metric   Both
« Previous Day
Next Day »
Daily Weekly Monthly Yearly Custom
  High: Low: Average:
Temperature: 74.0 °F 52.3 °F 62.1 °F
Dew Point: 57.0 °F 46.1 °F 51 °F
Humidity: 92% 38% 69%
Wind Speed: 5.0mph 0.0mph 0.6mph
Wind Gust: 10.0mph - -
Wind- - SW
Pressure: 30.37 in 30.14 in -
Precipitation: 0.00 in    
Historical Graphs
 
 
Tabular Data for September 11, 2017
Time Temperature Dew Point Pressure Wind Wind Speed Wind Gust Humidity Rainfall Rate (Hourly) Conditions
00:00 57.8 °F 52.0 °F 30.37 in Calm   1.0 mph 81% 0.00 in CLR
00:15 57.5 °F 52.0 °F 30.37 in Calm   2.0 mph 82% 0.00 in CLR
00:30 57.7 °F 52.2 °F 30.37 in Calm   1.0 mph 82% 0.00 in CLR
00:45 57.6 °F 52.1 °F 30.37 in Calm   3.0 mph 82% 0.00 in CLR
01:00 57.3 °F 51.9 °F 30.37 in Calm   3.0 mph 82% 0.00 in CLR
02:15 54.3 °F 48.9 °F 30.34 in Calm   3.0 mph 82% 0.00 in CLR
02:30 53.9 °F 48.9 °F 30.34 in Calm   2.0 mph 83% 0.00 in CLR
02:45 53.3 °F 48.6 °F 30.33 in Calm     84% 0.00 in CLR
03:00 52.7 °F 48.6 °F 30.33 in Calm   2.0 mph 86% 0.00 in CLR
03:15 52.6 °F 48.3 °F 30.33 in Calm     85% 0.00 in CLR
03:30 52.7 °F 48.4 °F 30.33 in Calm   2.0 mph 85% 0.00 in CLR
03:45 53.5 °F 48.5 °F 30.33 in SW 1.0 mph 4.0 mph 83% 0.00 in CLR
04:00 54.0 °F 48.6 °F 30.33 in Calm   3.0 mph 82% 0.00 in CLR
04:15 53.9 °F 48.2 °F 30.32 in Calm   3.0 mph 81% 0.00 in CLR
04:30 53.4 °F 48.0 °F 30.33 in Calm   3.0 mph 82% 0.00 in CLR
04:45 52.9 °F 48.2 °F 30.33 in Calm     84% 0.00 in CLR
05:00 52.5 °F 47.8 °F 30.33 in Calm   1.0 mph 84% 0.00 in CLR
05:15 52.3 °F 47.9 °F 30.33 in Calm   1.0 mph 85% 0.00 in CLR
05:30 52.6 °F 47.9 °F 30.33 in Calm   2.0 mph 84% 0.00 in CLR
05:45 52.7 °F 48.0 °F 30.33 in Calm   2.0 mph 84% 0.00 in CLR
06:00 52.3 °F 47.9 °F 30.33 in Calm   1.0 mph 85% 0.00 in CLR
06:15 52.3 °F 47.9 °F 30.34 in Calm   1.0 mph 85% 0.00 in CLR
06:30 52.8 °F 48.4 °F 30.34 in Calm   2.0 mph 85% 0.00 in CLR
06:45 52.9 °F 48.2 °F 30.35 in Calm   1.0 mph 84% 0.00 in CLR
07:00 52.8 °F 48.1 °F 30.35 in Calm   1.0 mph 84% 0.00 in CLR
07:15 52.8 °F 48.4 °F 30.36 in Calm   2.0 mph 85% 0.00 in CLR
07:30 53.1 °F 48.4 °F 30.37 in Calm   1.0 mph 84% 0.00 in CLR
07:45 53.8 °F 49.1 °F 30.36 in Calm   1.0 mph 84% 0.00 in CLR
08:00 54.5 °F 49.4 °F 30.36 in Calm   2.0 mph 83% 0.00 in CLR
08:15 55.1 °F 49.0 °F 30.35 in Calm   3.0 mph 80% 0.00 in CLR
08:30 56.2 °F 49.5 °F 30.35 in Calm   5.0 mph 78% 0.00 in CLR
08:45 57.8 °F 50.0 °F 30.34 in Calm   3.0 mph 75% 0.00 in CLR
09:00 58.7 °F 50.8 °F 30.34 in Calm   4.0 mph 75% 0.00 in CLR
09:15 59.2 °F 50.9 °F 30.34 in NW 2.0 mph 5.0 mph 74% 0.00 in CLR
09:30 60.2 °F 51.5 °F 30.34 in NW 1.0 mph 5.0 mph 73% 0.00 in CLR
09:45 61.2 °F 51.7 °F 30.35 in North 2.0 mph 7.0 mph 71% 0.00 in CLR
10:00 61.7 °F 52.2 °F 30.34 in NNW 1.0 mph 6.0 mph 71% 0.00 in CLR
10:15 62.8 °F 52.8 °F 30.34 in Calm   4.0 mph 70% 0.00 in CLR
10:30 63.3 °F 53.3 °F 30.33 in NW 2.0 mph 5.0 mph 70% 0.00 in CLR
10:45 63.8 °F 53.9 °F 30.33 in North 1.0 mph 5.0 mph 70% 0.00 in CLR
11:00 64.4 °F 53.6 °F 30.32 in NNW 2.0 mph 7.0 mph 68% 0.00 in CLR
11:30 65.3 °F 54.1 °F 30.31 in WNW 1.0 mph 8.0 mph 67% 0.00 in CLR
11:45 65.6 °F 53.5 °F 30.30 in NNW 1.0 mph 7.0 mph 65% 0.00 in CLR
12:00 65.9 °F 52.9 °F 30.29 in NW 2.0 mph 8.0 mph 63% 0.00 in CLR
12:15 66.6 °F 53.6 °F 30.29 in NW 2.0 mph 8.0 mph 63% 0.00 in CLR
12:30 67.5 °F 54.0 °F 30.27 in WNW 1.0 mph 8.0 mph 62% 0.00 in CLR
12:45 68.1 °F 54.2 °F 30.27 in WNW 2.0 mph 9.0 mph 61% 0.00 in CLR
13:00 68.6 °F 53.2 °F 30.27 in NW 3.0 mph 7.0 mph 58% 0.00 in CLR
13:15 69.3 °F 52.9 °F 30.26 in NW 2.0 mph 7.0 mph 56% 0.00 in CLR
13:30 69.4 °F 51.5 °F 30.26 in WNW 2.0 mph 8.0 mph 53% 0.00 in CLR
13:45 70.4 °F 50.9 °F 30.26 in NW 1.0 mph 9.0 mph 50% 0.00 in CLR
14:00 71.1 °F 51.0 °F 30.25 in WNW 1.0 mph 7.0 mph 49% 0.00 in CLR
14:15 71.5 °F 49.6 °F 30.24 in SSE 1.0 mph 7.0 mph 46% 0.00 in CLR
14:30 72.0 °F 47.0 °F 30.24 in North 5.0 mph 9.0 mph 41% 0.00 in CLR
14:45 72.7 °F 48.2 °F 30.23 in North 2.0 mph 8.0 mph 42% 0.00 in CLR
15:00 73.2 °F 46.1 °F 30.23 in NNE 1.0 mph 10.0 mph 38% 0.00 in CLR
15:15 73.7 °F 49.2 °F 30.22 in North 1.0 mph 7.0 mph 42% 0.00 in CLR
15:30 74.0 °F 49.5 °F 30.22 in NNW 1.0 mph 9.0 mph 42% 0.00 in CLR
15:45 73.8 °F 49.3 °F 30.21 in North 3.0 mph 6.0 mph 42% 0.00 in CLR
16:00 73.8 °F 48.6 °F 30.21 in NNW 2.0 mph 7.0 mph 41% 0.00 in CLR
16:15 73.5 °F 48.3 °F 30.20 in NNE 5.0 mph 9.0 mph 41% 0.00 in CLR
16:30 74.0 °F 49.4 °F 30.20 in NNE 2.0 mph 7.0 mph 42% 0.00 in CLR
16:45 73.7 °F 49.2 °F 30.19 in NNE 1.0 mph 7.0 mph 42% 0.00 in CLR
17:00 73.4 °F 48.9 °F 30.19 in North 1.0 mph 7.0 mph 42% 0.00 in CLR
17:15 73.5 °F 50.3 °F 30.18 in Calm   7.0 mph 44% 0.00 in CLR
17:30 73.1 °F 48.6 °F 30.18 in North 2.0 mph 9.0 mph 42% 0.00 in CLR
17:45 73.1 °F 49.3 °F 30.18 in NNW 1.0 mph 6.0 mph 43% 0.00 in CLR
18:00 72.6 °F 50.6 °F 30.17 in Calm   5.0 mph 46% 0.00 in CLR
18:15 71.4 °F 51.2 °F 30.17 in Calm   3.0 mph 49% 0.00 in CLR
18:30 70.7 °F 52.7 °F 30.17 in Calm   3.0 mph 53% 0.00 in CLR
18:45 69.1 °F 53.7 °F 30.16 in Calm     58% 0.00 in CLR
19:00 67.5 °F 53.1 °F 30.16 in Calm     60% 0.00 in CLR
19:15 65.7 °F 52.7 °F 30.16 in Calm     63% 0.00 in CLR
19:30 64.9 °F 52.4 °F 30.16 in Calm     64% 0.00 in CLR
19:45 65.0 °F 52.9 °F 30.16 in Calm     65% 0.00 in CLR
20:00 64.8 °F 52.8 °F 30.16 in Calm     65% 0.00 in CLR
20:15 64.1 °F 53.7 °F 30.16 in Calm     69% 0.00 in CLR
20:30 62.1 °F 54.1 °F 30.16 in Calm     75% 0.00 in CLR
20:45 61.3 °F 54.0 °F 30.16 in Calm     77% 0.00 in CLR
21:00 61.0 °F 54.1 °F 30.17 in Calm     78% 0.00 in CLR
21:15 60.4 °F 53.5 °F 30.16 in Calm     78% 0.00 in CLR
21:30 59.6 °F 53.7 °F 30.17 in Calm     81% 0.00 in CLR
21:45 58.9 °F 53.7 °F 30.16 in Calm     83% 0.00 in CLR
22:00 58.8 °F 53.6 °F 30.16 in Calm     83% 0.00 in CLR
22:15 59.5 °F 55.3 °F 30.15 in Calm     86% 0.00 in CLR
22:30 59.7 °F 54.8 °F 30.15 in Calm     84% 0.00 in CLR
22:45 59.3 °F 55.4 °F 30.15 in Calm     87% 0.00 in CLR
23:00 59.5 °F 55.6 °F 30.15 in Calm     87% 0.00 in CLR
23:30 58.3 °F 54.7 °F 30.15 in Calm     88% 0.00 in CLR
23:45 59.3 °F 57.0 °F 30.14 in Calm     92% 0.00 in CLR
TarryTown NY Weather
Compliments of Weather Underground - 1.5 mb